Time;durP1;ratioP1;P1;durP2;ratioP2;P2;SDS_P1;SDS_P2;PMS_P1;PMS_P2;Temp;Humidity;BMP_temperature;BMP_pressure;BME280_temperature;BME280_humidity;BME280_pressure;Samples;Min_cycle;Max_cycle;Signal;HPM_P1;HPM_P2
2021/01/03 00:01:11;;;;;;;42.28;21.10;;;4.40;76.90;;;;;;5113668;28;20023;-75
2021/01/03 00:03:38;;;;;;;57.97;28.33;;;4.40;76.90;;;;;;5113428;28;20027;-74
2021/01/03 00:06:04;;;;;;;66.57;32.20;;;4.30;76.90;;;;;;5112398;28;20072;-74
2021/01/03 00:08:30;;;;;;;67.13;31.50;;;4.30;77.00;;;;;;5112340;28;20515;-72
2021/01/03 00:10:56;;;;;;;61.33;30.60;;;4.30;77.20;;;;;;5113905;28;20101;-74
2021/01/03 00:13:23;;;;;;;55.00;29.08;;;4.40;77.20;;;;;;5113373;28;20369;-73
2021/01/03 00:15:48;;;;;;;56.25;28.20;;;4.40;77.40;;;;;;5113362;28;20092;-74
2021/01/03 00:18:14;;;;;;;54.70;28.63;;;4.40;77.40;;;;;;5113317;28;20459;-73
2021/01/03 00:20:41;;;;;;;60.65;30.50;;;4.40;77.50;;;;;;5113000;28;20022;-73
2021/01/03 00:23:06;;;;;;;67.05;30.10;;;4.40;77.60;;;;;;5111922;28;20107;-73
2021/01/03 00:25:33;;;;;;;68.00;28.55;;;4.40;77.70;;;;;;5112909;28;20055;-74
2021/01/03 00:27:59;;;;;;;66.07;29.13;;;4.40;77.80;;;;;;5113623;28;20460;-73
2021/01/03 00:30:27;;;;;;;76.07;30.70;;;4.40;77.90;;;;;;5111998;28;20034;-75
2021/01/03 00:32:53;;;;;;;102.15;37.03;;;4.50;78.00;;;;;;5114538;28;20134;-74
2021/01/03 00:35:30;;;;;;;98.35;35.70;;;4.50;77.90;;;;;;5116904;28;20028;-74
2021/01/03 00:38:05;;;;;;;90.68;34.03;;;4.50;77.90;;;;;;5116166;28;20047;-74
2021/01/03 00:40:31;;;;;;;89.78;34.22;;;4.50;78.00;;;;;;5115255;28;20058;-73
2021/01/03 00:42:58;;;;;;;76.50;31.27;;;4.50;78.00;;;;;;5116905;28;20051;-74
2021/01/03 00:45:24;;;;;;;86.50;32.20;;;4.50;77.80;;;;;;5116437;28;20028;-74
2021/01/03 00:47:50;;;;;;;76.05;31.65;;;4.50;77.70;;;;;;5115370;28;20478;-74
2021/01/03 00:50:16;;;;;;;85.38;32.50;;;4.50;77.70;;;;;;5115032;28;20053;-73
2021/01/03 00:52:41;;;;;;;80.57;32.60;;;4.40;77.60;;;;;;5116219;28;20023;-73
2021/01/03 00:55:09;;;;;;;61.58;26.27;;;4.40;77.70;;;;;;5116596;28;20490;-75
2021/01/03 00:57:35;;;;;;;87.00;32.60;;;4.40;77.80;;;;;;5116038;28;20463;-74
2021/01/03 01:00:00;;;;;;;72.45;27.67;;;4.30;77.90;;;;;;5115657;28;20023;-74
2021/01/03 01:02:26;;;;;;;57.80;24.30;;;4.30;78.00;;;;;;5115958;28;20023;-74
2021/01/03 01:04:52;;;;;;;78.78;27.80;;;4.30;78.10;;;;;;5114918;28;20031;-74
2021/01/03 01:07:18;;;;;;;75.88;29.25;;;4.30;78.20;;;;;;5115538;28;20034;-72
2021/01/03 01:09:43;;;;;;;81.50;31.52;;;4.30;78.30;;;;;;5114879;28;20030;-74
2021/01/03 01:12:09;;;;;;;68.72;28.35;;;4.30;78.30;;;;;;5116455;28;20024;-74
2021/01/03 01:14:35;;;;;;;81.45;29.23;;;4.30;78.40;;;;;;5114644;28;20028;-74
2021/01/03 01:17:01;;;;;;;101.93;32.05;;;4.30;78.40;;;;;;5114897;28;20031;-73
2021/01/03 01:19:26;;;;;;;61.55;25.40;;;4.30;78.50;;;;;;5116293;28;20463;-74
2021/01/03 01:21:52;;;;;;;59.63;24.83;;;4.30;78.50;;;;;;5115992;28;20034;-73
2021/01/03 01:24:17;;;;;;;60.22;23.38;;;4.30;78.50;;;;;;5115608;28;20038;-75
2021/01/03 01:26:43;;;;;;;51.75;21.75;;;4.30;78.50;;;;;;5114926;28;20034;-74
2021/01/03 01:29:09;;;;;;;36.63;19.58;;;4.20;78.40;;;;;;5114389;28;20028;-74
2021/01/03 01:31:34;;;;;;;53.72;21.65;;;4.20;78.40;;;;;;5115391;28;20555;-73
2021/01/03 01:34:00;;;;;;;44.90;20.58;;;4.20;78.50;;;;;;5115383;28;20030;-73
2021/01/03 01:36:26;;;;;;;47.22;20.55;;;4.20;78.50;;;;;;5115383;28;20049;-73
2021/01/03 01:38:51;;;;;;;42.80;21.00;;;4.20;78.60;;;;;;5115906;28;20604;-74
2021/01/03 01:41:17;;;;;;;42.33;19.95;;;4.10;78.60;;;;;;5115367;28;20024;-75
2021/01/03 01:43:43;;;;;;;55.10;24.95;;;4.10;78.50;;;;;;5112904;28;20038;-74
2021/01/03 01:46:19;;;;;;;47.35;20.67;;;4.10;78.70;;;;;;5114240;28;20027;-73
2021/01/03 01:48:46;;;;;;;42.85;18.75;;;4.00;78.60;;;;;;5115742;28;20027;-74
2021/01/03 01:54:37;;;;;;;34.40;18.23;;;4.00;78.50;;;;;;5094443;28;20149;-73
2021/01/03 01:57:09;;;;;;;38.45;19.17;;;3.90;78.30;;;;;;5093443;28;20024;-73
2021/01/03 02:00:11;;;;;;;41.50;20.25;;;3.90;78.40;;;;;;5093471;28;20028;-74
2021/01/03 02:02:54;;;;;;;43.08;21.08;;;3.80;78.40;;;;;;5094787;28;20020;-74
2021/01/03 02:05:34;;;;;;;63.95;26.92;;;3.80;78.50;;;;;;5093390;28;20024;-74
2021/01/03 02:08:18;;;;;;;50.85;23.60;;;3.80;79.00;;;;;;5094466;28;20048;-72
2021/01/03 02:10:46;;;;;;;52.65;25.27;;;3.80;79.50;;;;;;5094688;28;20054;-73
2021/01/03 02:13:26;;;;;;;60.67;25.20;;;3.90;79.70;;;;;;5094284;28;20024;-73
2021/01/03 02:15:59;;;;;;;68.40;31.15;;;4.00;79.60;;;;;;5094586;28;20042;-73
2021/01/03 02:18:26;;;;;;;58.25;30.75;;;4.10;79.60;;;;;;5094035;28;20028;-73
2021/01/03 02:21:03;;;;;;;57.22;26.98;;;4.10;79.50;;;;;;5094671;28;20106;-73
2021/01/03 02:23:43;;;;;;;58.75;25.30;;;4.20;79.50;;;;;;5094603;28;20368;-74
2021/01/03 02:26:12;;;;;;;62.05;25.67;;;4.30;79.20;;;;;;5093223;28;20064;-73
2021/01/03 02:28:42;;;;;;;62.75;25.20;;;4.30;79.20;;;;;;5094363;28;20064;-73
2021/01/03 02:31:09;;;;;;;63.45;24.15;;;4.40;79.20;;;;;;5094091;28;20028;-73
2021/01/03 02:33:41;;;;;;;92.20;24.55;;;4.40;79.10;;;;;;5093941;28;20111;-73
2021/01/03 02:36:25;;;;;;;113.90;24.33;;;4.40;79.10;;;;;;5093927;28;20464;-74
2021/01/03 02:39:11;;;;;;;134.77;25.13;;;4.50;78.90;;;;;;5094516;28;20071;-74
2021/01/03 02:41:36;;;;;;;94.95;24.33;;;4.50;78.70;;;;;;5092123;28;20475;-74
2021/01/03 02:44:02;;;;;;;107.43;24.90;;;4.50;78.70;;;;;;5094168;28;20089;-73
2021/01/03 02:46:28;;;;;;;278.83;35.17;;;4.50;78.50;;;;;;5094294;28;20032;-74
2021/01/03 02:48:54;;;;;;;183.52;26.13;;;4.50;78.40;;;;;;5094328;28;20020;-73
2021/01/03 02:51:22;;;;;;;108.15;23.50;;;4.50;78.30;;;;;;5093646;28;20059;-79
2021/01/03 02:53:48;;;;;;;202.98;27.63;;;4.50;78.40;;;;;;5093743;28;20526;-74
2021/01/03 02:56:14;;;;;;;127.78;25.30;;;4.50;78.60;;;;;;5093660;28;20028;-73
2021/01/03 02:58:39;;;;;;;189.48;27.58;;;4.50;78.20;;;;;;5093809;28;20020;-73
2021/01/03 03:01:05;;;;;;;258.60;31.80;;;4.50;78.40;;;;;;5093615;28;20384;-73
2021/01/03 03:03:31;;;;;;;167.75;27.00;;;4.50;78.30;;;;;;5092406;28;20407;-73
2021/01/03 03:05:56;;;;;;;105.95;22.20;;;4.50;78.30;;;;;;5093692;28;20028;-73
2021/01/03 03:08:23;;;;;;;175.95;25.05;;;4.50;78.30;;;;;;5093722;28;20028;-75
2021/01/03 03:10:48;;;;;;;88.97;21.55;;;4.50;78.70;;;;;;5092371;28;20020;-74
2021/01/03 03:13:14;;;;;;;210.65;27.65;;;4.50;78.70;;;;;;5093712;28;20028;-74
2021/01/03 03:15:40;;;;;;;619.75;62.63;;;4.50;78.10;;;;;;5093532;28;20479;-74
2021/01/03 03:18:08;;;;;;;96.03;21.35;;;4.50;78.00;;;;;;5093348;28;20024;-74
2021/01/03 03:20:34;;;;;;;163.65;26.20;;;4.40;77.70;;;;;;5093545;28;20028;-74
2021/01/03 03:23:00;;;;;;;108.65;22.50;;;4.40;77.90;;;;;;5093655;28;20035;-74
2021/01/03 03:25:26;;;;;;;237.63;28.88;;;4.30;78.20;;;;;;5092302;28;20028;-75
2021/01/03 03:27:51;;;;;;;180.82;25.75;;;4.30;78.30;;;;;;5091927;28;20490;-74
2021/01/03 03:30:20;;;;;;;168.23;26.25;;;4.30;78.40;;;;;;5093292;28;20032;-73
2021/01/03 03:32:51;;;;;;;272.52;33.55;;;4.30;78.10;;;;;;5092094;28;20444;-74
2021/01/03 03:35:18;;;;;;;245.40;29.10;;;4.30;78.10;;;;;;5091760;28;20123;-74
2021/01/03 03:37:44;;;;;;;99.40;22.63;;;4.20;77.90;;;;;;5093213;28;20551;-73
2021/01/03 03:40:10;;;;;;;221.80;28.95;;;4.20;78.30;;;;;;5093355;28;20051;-74
2021/01/03 03:42:36;;;;;;;255.07;30.48;;;4.20;78.50;;;;;;5093304;28;20032;-73
2021/01/03 03:45:02;;;;;;;115.22;25.15;;;4.20;78.70;;;;;;5093125;28;20028;-74
2021/01/03 03:47:28;;;;;;;153.63;30.80;;;4.20;78.70;;;;;;5091686;28;20024;-74
2021/01/03 03:49:55;;;;;;;243.90;32.60;;;4.30;78.80;;;;;;5092085;28;20111;-73
2021/01/03 03:52:21;;;;;;;128.15;27.83;;;4.30;78.70;;;;;;5093018;28;20456;-73
2021/01/03 03:54:47;;;;;;;184.52;31.58;;;4.30;78.70;;;;;;5093069;28;20032;-74
2021/01/03 03:57:13;;;;;;;296.65;40.75;;;4.40;78.60;;;;;;5092038;28;20028;-73
2021/01/03 03:59:39;;;;;;;108.60;30.05;;;4.40;78.20;;;;;;5091804;28;20043;-73
2021/01/03 04:02:05;;;;;;;151.57;30.92;;;4.40;78.40;;;;;;5093535;28;20045;-73
2021/01/03 04:04:30;;;;;;;147.27;33.08;;;4.40;78.40;;;;;;5093060;28;20449;-74
2021/01/03 04:06:56;;;;;;;192.18;34.75;;;4.40;78.40;;;;;;5094418;28;20028;-74
2021/01/03 04:09:22;;;;;;;178.88;34.28;;;4.40;78.20;;;;;;5096849;28;20032;-74
2021/01/03 04:11:50;;;;;;;106.35;31.48;;;4.50;78.20;;;;;;5096963;28;20020;-74
2021/01/03 04:14:21;;;;;;;146.15;35.35;;;4.50;78.50;;;;;;5097160;28;20039;-74
2021/01/03 04:16:49;;;;;;;108.85;31.90;;;4.60;78.40;;;;;;5097006;28;20035;-74
2021/01/03 04:19:15;;;;;;;140.43;35.45;;;4.60;78.40;;;;;;5095532;28;20028;-73
2021/01/03 04:21:41;;;;;;;164.32;36.90;;;4.70;78.30;;;;;;5097122;28;20032;-73
2021/01/03 04:24:08;;;;;;;109.75;34.00;;;4.70;78.20;;;;;;5095480;28;20024;-73
2021/01/03 04:26:33;;;;;;;77.53;28.27;;;4.80;78.10;;;;;;5095430;28;20039;-73
2021/01/03 04:28:59;;;;;;;47.25;17.98;;;4.80;77.90;;;;;;5096679;28;20024;-74
2021/01/03 04:31:25;;;;;;;40.92;17.33;;;4.80;77.30;;;;;;5096418;28;20024;-73
2021/01/03 04:33:50;;;;;;;33.97;15.10;;;4.80;77.10;;;;;;5096728;28;20032;-74
2021/01/03 04:36:17;;;;;;;37.70;14.68;;;4.70;77.10;;;;;;5096721;28;20036;-73
2021/01/03 04:38:43;;;;;;;30.38;13.73;;;4.80;77.30;;;;;;5095158;28;20044;-73
2021/01/03 04:41:40;;;;;;;26.33;13.32;;;4.80;77.20;;;;;;5095245;28;20380;-74
2021/01/03 04:44:20;;;;;;;29.40;13.75;;;4.70;76.80;;;;;;5079955;28;20044;-74
2021/01/03 04:46:47;;;;;;;41.15;13.95;;;4.70;76.80;;;;;;5096327;28;20021;-74
2021/01/03 04:49:23;;;;;;;165.30;17.48;;;4.60;76.60;;;;;;5096113;28;20071;-74
2021/01/03 04:52:07;;;;;;;90.35;16.38;;;4.60;76.40;;;;;;5094971;28;20387;-74
2021/01/03 04:54:34;;;;;;;190.50;21.05;;;4.50;76.40;;;;;;5094831;28;20043;-73
2021/01/03 04:57:07;;;;;;;104.82;16.95;;;4.40;77.00;;;;;;5094913;28;20134;-73
2021/01/03 04:59:42;;;;;;;38.50;13.55;;;4.40;77.20;;;;;;5096227;28;20102;-74
2021/01/03 05:02:33;;;;;;;63.33;13.20;;;4.40;76.90;;;;;;5094786;28;20024;-74
2021/01/03 05:05:25;;;;;;;39.45;11.43;;;4.40;76.70;;;;;;5095588;28;20028;-73
2021/01/03 05:08:23;;;;;;;62.05;13.00;;;4.30;76.60;;;;;;5087015;28;20469;-73
2021/01/03 05:10:49;;;;;;;28.15;11.45;;;4.30;76.80;;;;;;5088093;28;20039;-74
2021/01/03 05:13:36;;;;;;;83.30;13.55;;;4.40;76.70;;;;;;5096127;28;20028;-74
2021/01/03 05:16:02;;;;;;;46.53;12.15;;;4.40;76.80;;;;;;5095622;28;20047;-73
2021/01/03 05:18:28;;;;;;;35.25;11.27;;;4.40;76.70;;;;;;5077570;28;20468;-74
2021/01/03 05:21:06;;;;;;;35.08;10.65;;;4.30;76.60;;;;;;5095611;28;20593;-74
2021/01/03 05:23:34;;;;;;;57.60;11.55;;;4.30;76.30;;;;;;5095739;28;20028;-73
2021/01/03 05:26:02;;;;;;;37.45;11.13;;;4.30;76.30;;;;;;5095233;28;20579;-74
2021/01/03 05:28:29;;;;;;;36.30;11.48;;;4.30;76.30;;;;;;5094312;28;20032;-73
2021/01/03 05:31:16;;;;;;;98.60;14.18;;;4.20;76.40;;;;;;5094181;28;20052;-73
2021/01/03 05:33:51;;;;;;;74.65;13.15;;;4.20;76.40;;;;;;5109226;28;20390;-73
2021/01/03 05:36:47;;;;;;;70.75;13.18;;;4.20;76.40;;;;;;5115775;28;20031;-73
2021/01/03 05:39:32;;;;;;;57.03;12.60;;;4.20;76.30;;;;;;5112179;28;20051;-73
2021/01/03 05:42:07;;;;;;;127.63;14.38;;;4.20;76.20;;;;;;5115853;28;20104;-73
2021/01/03 05:44:35;;;;;;;;;;;4.20;76.00;;;;;;5115729;28;20042;-74
2021/01/03 05:47:14;;;;;;;243.43;22.33;;;4.10;76.00;;;;;;5115083;28;20308;-73
2021/01/03 05:49:40;;;;;;;55.92;11.30;;;4.10;76.10;;;;;;5114240;28;20115;-73
2021/01/03 05:52:29;;;;;;;33.88;11.20;;;4.00;75.70;;;;;;5115483;28;20104;-74
2021/01/03 05:55:01;;;;;;;54.80;12.13;;;4.00;76.40;;;;;;5115582;28;20214;-74
2021/01/03 05:57:34;;;;;;;100.72;14.52;;;4.00;76.50;;;;;;5115649;28;20469;-73
2021/01/03 06:00:24;;;;;;;57.80;9.82;;;4.00;76.50;;;;;;5114090;28;20019;-73
2021/01/03 06:02:51;;;;;;;49.13;11.02;;;4.00;76.00;;;;;;5115075;28;20016;-74
2021/01/03 06:05:24;;;;;;;98.78;13.95;;;4.00;75.80;;;;;;5115065;28;20038;-74
2021/01/03 06:08:22;;;;;;;117.43;14.25;;;3.90;75.60;;;;;;5115218;28;20019;-73
2021/01/03 06:10:48;;;;;;;154.40;17.25;;;3.90;75.60;;;;;;5111035;28;20480;-75
2021/01/03 06:13:15;;;;;;;138.90;17.08;;;3.80;75.40;;;;;;5114704;28;20106;-73
2021/01/03 06:15:51;;;;;;;62.03;12.82;;;3.70;75.60;;;;;;5114794;28;20028;-73
2021/01/03 06:18:43;;;;;;;76.05;12.27;;;3.70;75.70;;;;;;5113894;28;20024;-74
2021/01/03 06:21:29;;;;;;;132.13;16.42;;;3.60;75.80;;;;;;5114228;28;20030;-74
2021/01/03 06:24:18;;;;;;;56.85;11.65;;;3.60;75.90;;;;;;5114430;28;20031;-74
2021/01/03 06:27:07;;;;;;;75.85;12.55;;;3.60;76.00;;;;;;5114676;28;20031;-73
2021/01/03 06:29:45;;;;;;;26.30;9.93;;;3.50;76.30;;;;;;5111794;28;20399;-75
2021/01/03 06:32:49;;;;;;;38.65;11.50;;;3.50;76.50;;;;;;5112694;28;20468;-74
2021/01/03 06:35:35;;;;;;;38.65;10.60;;;3.60;76.70;;;;;;5102630;28;20115;-74
2021/01/03 06:38:25;;;;;;;53.20;12.65;;;3.60;76.70;;;;;;5104598;28;20052;-75
2021/01/03 06:40:50;;;;;;;34.30;11.70;;;3.70;76.70;;;;;;5101992;28;20031;-74
2021/01/03 06:43:40;;;;;;;38.08;11.45;;;3.70;76.60;;;;;;5101489;28;20102;-74
2021/01/03 06:46:12;;;;;;;39.17;12.43;;;3.70;76.70;;;;;;5103820;28;20107;-74
2021/01/03 06:49:07;;;;;;;53.83;16.95;;;3.80;76.60;;;;;;5103111;28;20022;-77
2021/01/03 06:52:03;;;;;;;39.95;12.45;;;3.80;76.50;;;;;;5075143;28;20427;-73
2021/01/03 06:55:06;;;;;;;51.47;14.27;;;3.80;76.90;;;;;;5102626;28;20040;-74
2021/01/03 06:57:56;;;;;;;24.10;11.60;;;3.90;77.00;;;;;;5105144;28;20024;-74
2021/01/03 07:00:34;;;;;;;22.40;10.85;;;4.00;77.10;;;;;;5105873;28;20496;-76
2021/01/03 07:03:21;;;;;;;19.63;10.43;;;4.00;76.60;;;;;;5092332;28;20039;-74
2021/01/03 07:05:54;;;;;;;22.38;11.02;;;4.10;76.80;;;;;;5093510;28;20020;-73
2021/01/03 07:08:21;;;;;;;21.85;10.65;;;4.20;76.80;;;;;;5093583;28;20023;-73
2021/01/03 07:10:47;;;;;;;19.23;9.73;;;4.30;76.70;;;;;;5093357;28;20035;-75
2021/01/03 07:13:27;;;;;;;20.67;11.48;;;4.40;76.60;;;;;;5093578;28;20466;-73
2021/01/03 07:16:04;;;;;;;20.50;10.98;;;4.40;75.90;;;;;;5093646;28;20074;-74
2021/01/03 07:18:52;;;;;;;21.70;10.98;;;4.40;76.00;;;;;;5093445;28;20111;-74
2021/01/03 07:21:42;;;;;;;24.80;11.60;;;4.50;75.60;;;;;;5093467;28;20046;-74
2021/01/03 07:24:28;;;;;;;19.85;10.45;;;4.40;75.40;;;;;;5093763;28;20036;-74
2021/01/03 07:27:06;;;;;;;32.67;12.02;;;4.40;75.80;;;;;;5093343;28;20020;-74
2021/01/03 07:29:32;;;;;;;25.83;11.38;;;4.50;75.80;;;;;;5093001;28;20031;-74
2021/01/03 07:32:05;;;;;;;35.13;13.65;;;4.50;75.40;;;;;;5092863;28;20025;-73
2021/01/03 07:34:34;;;;;;;26.23;11.15;;;4.50;75.50;;;;;;5093215;28;20441;-75
2021/01/03 07:37:12;;;;;;;22.92;11.23;;;4.50;75.70;;;;;;5093644;28;20109;-75
2021/01/03 07:40:00;;;;;;;25.10;11.32;;;4.60;75.70;;;;;;5092999;28;20418;-74
2021/01/03 07:42:31;;;;;;;21.40;9.82;;;4.50;75.00;;;;;;5095614;28;20132;-74
2021/01/03 07:44:58;;;;;;;16.40;8.77;;;4.60;75.00;;;;;;5097465;28;20024;-75
2021/01/03 07:47:40;;;;;;;12.65;8.27;;;4.50;74.70;;;;;;5097568;28;20366;-74
2021/01/03 07:50:26;;;;;;;15.27;8.75;;;4.50;74.10;;;;;;5080339;28;20353;-73
2021/01/03 07:52:59;;;;;;;14.57;8.77;;;4.50;74.50;;;;;;5095915;28;20194;-74
2021/01/03 07:55:31;;;;;;;15.52;8.75;;;4.50;74.90;;;;;;5096000;28;20543;-75
2021/01/03 07:58:11;;;;;;;16.85;9.55;;;4.60;75.10;;;;;;5097208;28;20028;-76
2021/01/03 08:00:39;;;;;;;16.10;9.68;;;4.70;74.60;;;;;;5096913;28;20024;-75
2021/01/03 08:03:08;;;;;;;20.17;11.13;;;4.70;74.30;;;;;;5096917;28;20035;-74
2021/01/03 08:05:35;;;;;;;17.55;10.25;;;4.70;74.00;;;;;;5096715;28;20051;-75
2021/01/03 08:08:03;;;;;;;20.63;10.43;;;4.80;74.50;;;;;;5078805;28;20464;-75
2021/01/03 08:10:29;;;;;;;17.05;9.43;;;4.90;74.70;;;;;;5096855;28;20028;-74
2021/01/03 08:13:03;;;;;;;16.52;9.65;;;5.00;74.40;;;;;;5104321;28;20019;-74
2021/01/03 08:15:32;;;;;;;21.35;12.25;;;5.10;74.40;;;;;;5105378;28;20027;-75
2021/01/03 08:18:11;;;;;;;20.73;11.05;;;5.30;73.90;;;;;;5104505;28;20024;-76
2021/01/03 08:20:36;;;;;;;18.63;11.32;;;5.40;74.10;;;;;;5105251;28;20028;-74
2021/01/03 08:23:30;;;;;;;22.17;12.73;;;5.60;74.20;;;;;;5105279;28;20020;-75
2021/01/03 08:26:23;;;;;;;27.10;13.30;;;5.90;74.10;;;;;;5105024;28;20035;-75
2021/01/03 08:29:01;;;;;;;26.15;15.10;;;6.20;73.40;;;;;;5103800;28;20089;-76
2021/01/03 08:31:29;;;;;;;21.95;13.02;;;6.40;72.80;;;;;;5105996;28;20069;-75
2021/01/03 08:34:37;;;;;;;21.60;13.35;;;6.50;72.00;;;;;;5107089;28;20020;-75
2021/01/03 08:37:24;;;;;;;18.92;12.38;;;6.60;70.80;;;;;;5105094;28;20034;-76
2021/01/03 08:39:50;;;;;;;;;;;6.60;70.50;;;;;;5111603;28;20044;-75
2021/01/03 08:42:34;;;;;;;24.13;13.73;;;6.60;70.60;;;;;;5116650;28;19904;-75
2021/01/03 08:44:59;;;;;;;21.50;13.07;;;6.60;70.20;;;;;;5117019;28;20023;-75
2021/01/03 08:47:37;;;;;;;24.27;14.02;;;6.50;70.40;;;;;;5116817;28;20028;-74
2021/01/03 08:50:20;;;;;;;28.42;15.40;;;6.70;70.70;;;;;;5115321;28;20030;-75
2021/01/03 08:53:05;;;;;;;26.17;14.88;;;6.70;70.20;;;;;;5116052;28;20019;-75
2021/01/03 08:55:35;;;;;;;27.80;15.60;;;6.70;69.70;;;;;;5116923;28;20039;-75
2021/01/03 08:58:02;;;;;;;26.58;14.93;;;6.80;69.30;;;;;;5116290;28;20024;-75
2021/01/03 09:00:35;;;;;;;25.30;14.48;;;6.60;68.60;;;;;;5115353;28;20023;-75
2021/01/03 09:03:02;;;;;;;25.88;14.43;;;6.50;69.10;;;;;;5116432;28;20023;-74
2021/01/03 09:05:36;;;;;;;26.58;14.75;;;6.50;69.00;;;;;;5116113;28;20031;-74
2021/01/03 09:08:05;;;;;;;23.20;13.70;;;6.40;68.80;;;;;;5116073;28;20028;-75
2021/01/03 09:10:35;;;;;;;25.85;14.52;;;6.40;69.40;;;;;;5115059;28;20267;-75
2021/01/03 09:13:13;;;;;;;24.92;14.88;;;6.40;69.30;;;;;;5116034;28;20027;-73
2021/01/03 09:15:42;;;;;;;27.73;15.68;;;6.50;69.50;;;;;;5114839;28;20067;-74
2021/01/03 09:18:59;;;;;;;28.40;16.80;;;6.60;69.90;;;;;;5114698;28;20028;-74
2021/01/03 09:21:26;;;;;;;29.13;15.75;;;6.80;69.40;;;;;;5088668;28;20391;-75
2021/01/03 09:24:02;;;;;;;32.75;17.83;;;6.90;69.20;;;;;;5102111;28;20090;-77
2021/01/03 09:26:47;;;;;;;32.00;18.25;;;6.90;68.70;;;;;;5105083;28;20024;-75
2021/01/03 09:29:21;;;;;;;27.00;17.42;;;6.90;68.30;;;;;;5105606;28;20020;-74
2021/01/03 09:32:02;;;;;;;30.30;18.08;;;6.90;68.40;;;;;;5102306;28;20024;-73
2021/01/03 09:34:48;;;;;;;45.63;19.38;;;7.00;68.20;;;;;;5104928;28;20060;-74
2021/01/03 09:37:24;;;;;;;35.65;19.95;;;7.00;68.00;;;;;;5105789;28;20054;-72
2021/01/03 09:40:05;;;;;;;36.55;19.33;;;7.20;69.30;;;;;;5103476;28;20470;-75
2021/01/03 09:42:53;;;;;;;35.10;21.23;;;7.50;68.70;;;;;;5102142;28;20050;-74
2021/01/03 09:45:31;;;;;;;34.65;19.67;;;7.60;67.50;;;;;;5103227;28;20027;-74
2021/01/03 09:47:57;;;;;;;37.08;21.75;;;7.60;66.90;;;;;;5101716;28;20036;-73
2021/01/03 09:50:41;;;;;;;37.13;22.20;;;7.50;66.70;;;;;;5104234;28;20020;-73
2021/01/03 09:53:06;;;;;;;35.13;21.98;;;7.40;65.70;;;;;;5104312;28;20103;-71
2021/01/03 09:55:40;;;;;;;38.83;21.75;;;7.30;67.20;;;;;;5102435;28;20111;-75
2021/01/03 09:58:08;;;;;;;34.45;21.17;;;7.60;67.80;;;;;;5102406;28;20044;-72
2021/01/03 10:00:55;;;;;;;35.55;21.42;;;7.70;66.50;;;;;;5104428;28;20026;-73
2021/01/03 10:03:42;;;;;;;37.38;21.42;;;7.80;66.60;;;;;;5102899;28;20047;-73
2021/01/03 10:06:15;;;;;;;36.33;20.67;;;7.90;66.10;;;;;;5103569;28;20019;-73
2021/01/03 10:08:41;;;;;;;35.10;21.17;;;7.90;65.90;;;;;;5103014;28;20100;-73
2021/01/03 10:11:07;;;;;;;37.15;20.67;;;8.00;66.00;;;;;;5103451;28;20019;-73
2021/01/03 10:13:33;;;;;;;35.25;21.15;;;8.00;65.20;;;;;;5104378;28;20395;-75
2021/01/03 10:16:15;;;;;;;35.40;20.40;;;8.00;65.40;;;;;;5107559;28;20122;-75
2021/01/03 10:18:41;;;;;;;33.15;20.30;;;8.00;65.10;;;;;;5115074;28;20364;-75
2021/01/03 10:21:29;;;;;;;31.63;19.55;;;8.10;65.10;;;;;;5100026;28;20016;-76
2021/01/03 10:24:02;;;;;;;35.42;19.73;;;7.90;64.30;;;;;;5103484;28;20040;-76
2021/01/03 10:26:34;;;;;;;35.03;19.17;;;7.70;64.00;;;;;;5101933;28;20027;-76
2021/01/03 10:29:01;;;;;;;33.75;19.10;;;7.40;64.10;;;;;;5093067;28;20487;-74
2021/01/03 10:31:55;;;;;;;31.83;19.55;;;7.20;64.70;;;;;;5094394;28;20073;-76
2021/01/03 10:34:21;;;;;;;34.75;20.73;;;7.00;65.10;;;;;;5093306;28;20139;-74
2021/01/03 10:36:48;;;;;;;35.28;19.92;;;6.80;65.40;;;;;;5092784;28;20111;-75
2021/01/03 10:39:15;;;;;;;31.02;17.90;;;6.70;66.00;;;;;;5094221;28;20052;-76
2021/01/03 10:41:42;;;;;;;33.40;18.70;;;6.60;66.10;;;;;;5112692;28;20031;-76
2021/01/03 10:44:12;;;;;;;31.00;17.88;;;6.50;66.30;;;;;;5100776;28;20027;-76
2021/01/03 10:46:41;;;;;;;34.17;18.35;;;6.40;66.70;;;;;;5102592;28;20031;-75
2021/01/03 10:49:08;;;;;;;31.98;18.15;;;6.30;66.90;;;;;;5098622;28;20035;-74
2021/01/03 10:51:52;;;;;;;26.13;16.40;;;6.30;67.10;;;;;;5113015;28;20506;-73
2021/01/03 10:54:22;;;;;;;33.28;16.77;;;6.30;67.00;;;;;;5114264;28;20035;-74
2021/01/03 10:56:49;;;;;;;30.55;17.00;;;6.30;67.20;;;;;;5114466;28;20039;-74
2021/01/03 10:59:15;;;;;;;28.50;17.48;;;6.20;67.50;;;;;;5113569;28;20032;-74
2021/01/03 11:01:41;;;;;;;24.55;15.02;;;6.20;68.60;;;;;;5112862;28;20114;-73
2021/01/03 11:04:08;;;;;;;26.73;14.18;;;6.30;67.80;;;;;;5113974;28;20031;-74
2021/01/03 11:06:36;;;;;;;24.75;14.73;;;6.20;67.30;;;;;;5114099;28;20019;-74
2021/01/03 11:09:01;;;;;;;23.92;14.23;;;6.10;67.30;;;;;;5112648;28;20375;-74
2021/01/03 11:11:27;;;;;;;28.02;15.43;;;6.00;67.50;;;;;;5114063;28;20103;-74
2021/01/03 11:13:53;;;;;;;28.13;15.25;;;6.00;67.90;;;;;;5113888;28;20031;-74
2021/01/03 11:16:18;;;;;;;23.63;13.52;;;5.90;67.70;;;;;;5113767;28;20051;-74
2021/01/03 11:18:44;;;;;;;23.50;14.30;;;5.80;68.10;;;;;;5113739;28;20027;-74
2021/01/03 11:21:14;;;;;;;22.85;13.90;;;5.70;68.20;;;;;;5113696;28;20452;-74
2021/01/03 11:23:40;;;;;;;23.73;13.25;;;5.70;68.30;;;;;;5112908;28;20502;-74
2021/01/03 11:26:05;;;;;;;25.83;13.88;;;5.60;68.20;;;;;;5113832;28;20024;-74
2021/01/03 11:28:31;;;;;;;20.80;12.80;;;5.50;68.60;;;;;;5112255;28;20048;-74
2021/01/03 11:30:57;;;;;;;22.92;12.80;;;5.50;69.20;;;;;;5112355;28;20027;-74
2021/01/03 11:33:23;;;;;;;21.63;12.50;;;5.50;69.60;;;;;;5112462;28;20024;-74
2021/01/03 11:35:48;;;;;;;21.95;13.00;;;5.60;69.70;;;;;;5113493;28;20061;-73
2021/01/03 11:38:14;;;;;;;21.00;12.80;;;5.70;69.60;;;;;;5112330;28;20065;-75
2021/01/03 11:40:40;;;;;;;23.42;13.35;;;5.70;69.40;;;;;;5113953;28;20024;-76
2021/01/03 11:43:05;;;;;;;17.88;11.73;;;5.80;69.60;;;;;;5113365;28;20149;-75
2021/01/03 11:45:31;;;;;;;20.75;12.20;;;5.80;69.60;;;;;;5113877;28;20034;-74
2021/01/03 11:47:57;;;;;;;20.20;12.20;;;5.90;69.30;;;;;;5112468;28;20035;-75
2021/01/03 11:50:23;;;;;;;20.45;13.05;;;5.80;68.80;;;;;;5112405;28;20051;-74
2021/01/03 11:52:49;;;;;;;20.65;12.90;;;5.80;68.80;;;;;;5113911;28;20035;-75
2021/01/03 11:55:17;;;;;;;23.35;13.13;;;5.70;69.10;;;;;;5111959;28;20046;-76
2021/01/03 11:57:44;;;;;;;20.58;12.32;;;5.70;69.10;;;;;;5112303;28;20051;-72
2021/01/03 12:00:12;;;;;;;23.25;13.00;;;5.70;69.30;;;;;;5112990;28;20479;-74
2021/01/03 12:02:39;;;;;;;24.23;11.88;;;5.70;69.30;;;;;;5112782;28;20394;-74
2021/01/03 12:05:06;;;;;;;23.02;12.65;;;5.70;69.40;;;;;;5112937;28;20422;-73
2021/01/03 12:07:32;;;;;;;25.75;14.18;;;5.60;69.30;;;;;;5113360;28;20035;-73
2021/01/03 12:09:57;;;;;;;22.30;12.68;;;5.60;69.30;;;;;;5113509;28;20084;-73
2021/01/03 12:12:23;;;;;;;23.33;12.75;;;5.60;69.20;;;;;;5112966;28;20509;-72
2021/01/03 12:14:49;;;;;;;24.77;13.90;;;5.60;69.40;;;;;;5111624;28;20430;-74
2021/01/03 12:17:20;;;;;;;20.50;12.48;;;5.50;69.40;;;;;;5112789;28;20387;-73
2021/01/03 12:19:47;;;;;;;21.98;13.73;;;5.50;69.50;;;;;;5112379;28;20019;-74
2021/01/03 12:22:40;;;;;;;22.65;13.13;;;5.40;69.50;;;;;;5098898;28;20070;-76
2021/01/03 12:25:08;;;;;;;28.83;14.73;;;5.50;70.00;;;;;;5089984;28;20064;-74
2021/01/03 12:27:35;;;;;;;24.33;13.98;;;5.50;70.00;;;;;;5097805;28;20041;-75
2021/01/03 12:30:01;;;;;;;23.00;12.55;;;5.50;69.70;;;;;;5116778;28;20058;-72
2021/01/03 12:32:26;;;;;;;20.27;12.55;;;5.40;69.50;;;;;;5116352;28;20019;-74
2021/01/03 12:34:52;;;;;;;20.52;12.48;;;5.30;69.60;;;;;;5116383;28;20065;-74
2021/01/03 12:37:20;;;;;;;18.20;11.25;;;5.30;69.80;;;;;;5116789;28;20020;-73
2021/01/03 12:39:46;;;;;;;19.98;12.38;;;5.30;70.10;;;;;;5115898;28;20158;-75
2021/01/03 12:42:15;;;;;;;21.30;12.25;;;5.30;70.10;;;;;;5115427;28;20028;-73
2021/01/03 12:44:41;;;;;;;20.20;11.90;;;5.30;70.30;;;;;;5117006;28;20031;-73
2021/01/03 12:47:07;;;;;;;21.52;11.95;;;5.40;70.20;;;;;;5116193;28;20030;-74
2021/01/03 12:49:34;;;;;;;19.88;12.27;;;5.40;70.20;;;;;;5116402;28;20113;-75
2021/01/03 12:51:59;;;;;;;21.35;12.13;;;5.40;70.10;;;;;;5116665;28;20028;-74
2021/01/03 12:54:27;;;;;;;23.17;12.38;;;5.40;70.20;;;;;;5114765;28;20031;-76
2021/01/03 12:56:53;;;;;;;23.77;12.68;;;5.30;70.10;;;;;;5095789;28;20016;-77
2021/01/03 12:59:23;;;;;;;22.05;12.70;;;5.40;70.10;;;;;;5095861;28;20016;-75
2021/01/03 13:01:48;;;;;;;30.95;13.95;;;5.30;70.10;;;;;;5094249;28;20032;-75
2021/01/03 13:04:16;;;;;;;25.23;13.40;;;5.30;70.30;;;;;;5095870;28;20030;-74